Time;durP1;ratioP1;P1;durP2;ratioP2;P2;SDS_P1;SDS_P2;PMS_P1;PMS_P2;Temp;Humidity;BMP_temperature;BMP_pressure;BME280_temperature;BME280_humidity;BME280_pressure;Samples;Min_cycle;Max_cycle;Signal;HPM_P1;HPM_P2
2022/12/22 03:28:20;;;;;;;47.83;26.70;;;2.40;99.90;;;;;;6271771;28;20479;-64
2022/12/22 03:31:23;;;;;;;44.13;26.97;;;2.30;99.90;;;;;;6279369;28;20485;-64
2022/12/22 03:34:28;;;;;;;45.67;27.73;;;2.30;99.90;;;;;;6274154;28;20784;-65
2022/12/22 03:37:31;;;;;;;46.57;26.17;;;2.40;99.90;;;;;;6275269;28;20475;-64
2022/12/22 03:40:34;;;;;;;49.90;27.23;;;2.50;99.90;;;;;;6275158;28;20481;-64
2022/12/22 03:46:57;;;;;;;55.37;27.33;;;2.60;99.90;;;;;;6275066;28;20463;-64
2022/12/22 03:50:02;;;;;;;39.50;23.77;;;2.60;99.90;;;;;;6274818;28;20485;-65
2022/12/22 03:53:06;;;;;;;51.30;28.13;;;2.70;99.90;;;;;;6275156;28;20470;-64
2022/12/22 03:56:09;;;;;;;48.60;29.23;;;2.80;99.90;;;;;;6274698;28;20477;-64
2022/12/22 03:59:13;;;;;;;57.37;32.37;;;2.80;99.90;;;;;;6274653;28;20543;-64
2022/12/22 04:02:16;;;;;;;58.37;34.80;;;2.80;99.90;;;;;;6274892;28;20868;-65
2022/12/22 04:05:21;;;;;;;49.30;29.23;;;2.80;99.90;;;;;;6270498;28;20474;-65
2022/12/22 04:08:24;;;;;;;44.80;27.63;;;2.90;99.90;;;;;;6273865;28;20774;-65
2022/12/22 04:14:48;;;;;;;46.47;26.47;;;3.00;99.90;;;;;;6272511;28;20504;-65
2022/12/22 04:17:51;;;;;;;51.03;29.73;;;3.00;99.90;;;;;;6273047;28;20493;-65
2022/12/22 04:20:56;;;;;;;55.40;31.10;;;3.00;99.90;;;;;;6273169;28;20485;-65
2022/12/22 04:23:59;;;;;;;48.27;29.23;;;3.00;99.90;;;;;;6249220;28;20471;-65
2022/12/22 04:27:02;;;;;;;51.57;29.10;;;3.10;99.90;;;;;;6249507;28;20467;-64
2022/12/22 04:30:07;;;;;;;55.80;30.67;;;3.00;99.90;;;;;;6249470;28;20467;-64
2022/12/22 04:33:10;;;;;;;57.97;31.40;;;3.00;99.90;;;;;;6294940;28;20463;-65
2022/12/22 04:36:15;;;;;;;45.03;26.90;;;3.00;99.90;;;;;;6299183;28;20905;-65
2022/12/22 04:39:18;;;;;;;57.80;31.90;;;3.00;99.90;;;;;;6299528;28;20477;-65
2022/12/22 04:42:21;;;;;;;55.43;31.20;;;3.00;99.90;;;;;;6299483;28;20441;-64
2022/12/22 04:45:25;;;;;;;46.40;29.27;;;3.00;99.90;;;;;;6299098;28;20469;-65
2022/12/22 04:48:30;;;;;;;56.63;30.63;;;3.00;99.90;;;;;;6298720;28;20476;-64
2022/12/22 04:51:35;;;;;;;53.30;31.03;;;2.90;99.90;;;;;;6298820;28;20922;-64
2022/12/22 04:54:38;;;;;;;50.43;29.97;;;2.90;99.90;;;;;;6299383;28;20466;-64
2022/12/22 04:57:41;;;;;;;60.57;30.90;;;2.90;99.90;;;;;;6299217;28;20780;-64
2022/12/22 05:00:44;;;;;;;52.50;28.67;;;2.80;99.90;;;;;;6299117;28;20625;-64
2022/12/22 05:03:47;;;;;;;48.57;28.63;;;2.70;99.90;;;;;;6298885;28;20487;-64
2022/12/22 05:06:52;;;;;;;55.67;31.20;;;2.70;99.90;;;;;;6298543;28;20497;-64
2022/12/22 05:09:55;;;;;;;62.70;31.77;;;2.70;99.90;;;;;;6298423;28;20965;-64
2022/12/22 05:12:59;;;;;;;47.67;28.80;;;2.60;99.90;;;;;;6298472;28;20481;-64
2022/12/22 05:16:06;;;;;;;50.17;29.17;;;2.60;99.90;;;;;;6298853;28;20469;-64
2022/12/22 05:19:09;;;;;;;48.37;29.20;;;2.60;99.90;;;;;;6298481;28;20549;-64
2022/12/22 05:22:14;;;;;;;56.80;30.90;;;2.60;99.90;;;;;;6288190;28;20466;-64
2022/12/22 05:25:18;;;;;;;60.30;32.40;;;2.40;99.90;;;;;;6274131;28;20480;-65
2022/12/22 05:28:21;;;;;;;50.67;28.73;;;2.40;99.90;;;;;;6276825;28;20474;-64
2022/12/22 05:31:26;;;;;;;63.93;31.07;;;2.40;99.90;;;;;;6285932;28;20944;-64
2022/12/22 05:34:29;;;;;;;52.97;29.10;;;2.40;99.90;;;;;;6302798;28;20631;-64
2022/12/22 05:37:34;;;;;;;53.43;29.90;;;2.40;99.90;;;;;;6302783;28;20473;-65
2022/12/22 05:40:37;;;;;;;54.50;27.53;;;2.40;99.90;;;;;;6303126;28;20484;-64
2022/12/22 05:43:40;;;;;;;48.37;27.67;;;2.40;99.90;;;;;;6303220;28;20465;-64
2022/12/22 05:46:44;;;;;;;45.50;28.77;;;2.30;99.90;;;;;;6302559;28;20801;-64
2022/12/22 05:49:47;;;;;;;49.53;29.40;;;2.30;99.90;;;;;;6302513;28;20945;-65
2022/12/22 05:52:51;;;;;;;50.60;29.40;;;2.20;99.90;;;;;;6302618;28;20474;-65
2022/12/22 05:55:55;;;;;;;47.07;29.30;;;2.20;99.90;;;;;;6302494;28;20473;-65
2022/12/22 05:58:58;;;;;;;52.07;29.53;;;2.20;99.90;;;;;;6302368;28;20465;-64
2022/12/22 06:02:01;;;;;;;50.17;27.80;;;2.20;99.90;;;;;;6302388;28;20476;-65
2022/12/22 06:05:05;;;;;;;48.17;27.90;;;2.20;99.90;;;;;;6302164;28;20524;-65
2022/12/22 06:08:10;;;;;;;41.97;28.23;;;2.10;99.90;;;;;;6302310;28;20917;-67
2022/12/22 06:11:16;;;;;;;56.07;29.33;;;2.10;99.90;;;;;;6301886;28;20485;-64
2022/12/22 06:14:20;;;;;;;51.20;32.40;;;2.00;99.90;;;;;;6292911;28;20465;-64
2022/12/22 06:17:23;;;;;;;52.30;38.27;;;2.00;99.90;;;;;;6301894;28;20489;-64
2022/12/22 06:20:26;;;;;;;56.63;34.33;;;2.00;99.90;;;;;;6301977;28;20788;-64
2022/12/22 06:23:31;;;;;;;55.63;31.27;;;2.00;99.90;;;;;;6281210;28;20511;-64
2022/12/22 06:26:34;;;;;;;44.07;28.47;;;2.00;99.90;;;;;;6276989;28;20477;-65
2022/12/22 06:29:37;;;;;;;53.00;32.80;;;2.00;99.90;;;;;;6276775;28;20493;-65
2022/12/22 06:32:40;;;;;;;58.77;30.77;;;2.00;99.90;;;;;;6295241;28;20484;-65
2022/12/22 06:35:44;;;;;;;59.63;32.77;;;2.00;99.90;;;;;;6301264;28;20472;-65
2022/12/22 06:38:48;;;;;;;59.67;31.37;;;2.00;99.90;;;;;;6300619;28;20485;-65
2022/12/22 06:45:12;;;;;;;48.70;29.10;;;2.10;99.90;;;;;;6301349;28;20442;-64
2022/12/22 06:48:15;;;;;;;52.20;28.90;;;2.10;99.90;;;;;;6301028;28;20437;-65
2022/12/22 06:51:19;;;;;;;48.97;28.70;;;2.10;99.90;;;;;;6300741;28;20473;-64
2022/12/22 06:54:23;;;;;;;55.50;30.23;;;2.20;99.90;;;;;;6301026;28;20783;-64
2022/12/22 06:57:28;;;;;;;53.80;30.77;;;2.10;99.90;;;;;;6300635;28;20474;-65
2022/12/22 07:00:32;;;;;;;56.90;31.00;;;2.20;99.90;;;;;;6301001;28;20473;-65
2022/12/22 07:03:35;;;;;;;46.17;30.53;;;2.20;99.90;;;;;;6300418;28;20469;-65
2022/12/22 07:06:38;;;;;;;53.47;30.23;;;2.30;99.90;;;;;;6300868;28;20465;-65
2022/12/22 07:09:43;;;;;;;44.00;29.03;;;2.30;99.90;;;;;;6300765;28;20480;-65
2022/12/22 07:12:46;;;;;;;56.50;31.80;;;2.30;99.90;;;;;;6300769;28;20999;-65
2022/12/22 07:15:50;;;;;;;46.73;28.20;;;2.40;99.90;;;;;;6295623;28;20480;-65
2022/12/22 07:19:02;;;;;;;49.33;28.97;;;2.40;99.90;;;;;;6299949;28;20873;-65
2022/12/22 07:22:06;;;;;;;48.10;31.20;;;2.40;99.90;;;;;;6290981;28;20485;-65
2022/12/22 07:25:10;;;;;;;48.10;28.80;;;2.40;99.90;;;;;;6275772;28;20470;-65
2022/12/22 07:28:14;;;;;;;48.67;29.40;;;2.40;99.90;;;;;;6275352;28;20749;-64
2022/12/22 07:31:23;;;;;;;45.70;31.40;;;2.40;99.90;;;;;;6282924;28;20971;-65
2022/12/22 07:34:26;;;;;;;51.97;27.00;;;2.50;99.90;;;;;;6300535;28;20554;-65
2022/12/22 07:37:29;;;;;;;47.70;29.40;;;2.60;99.90;;;;;;6300916;28;20480;-65
2022/12/22 07:40:34;;;;;;;48.00;28.77;;;2.70;99.90;;;;;;6302486;28;20480;-65
2022/12/22 07:43:42;;;;;;;44.30;28.70;;;2.80;99.90;;;;;;6287553;28;20474;-65
2022/12/22 07:46:46;;;;;;;46.97;27.20;;;2.90;99.90;;;;;;6275142;28;20474;-65
2022/12/22 07:53:10;;;;;;;46.23;29.00;;;3.10;99.90;;;;;;6273850;28;20489;-65
2022/12/22 07:56:14;;;;;;;43.23;28.20;;;3.40;99.90;;;;;;6273742;28;20474;-65
2022/12/22 07:59:18;;;;;;;51.60;30.10;;;3.50;99.90;;;;;;6273942;28;20474;-65
2022/12/22 08:02:21;;;;;;;42.60;30.53;;;3.70;99.90;;;;;;6274768;28;20470;-65
2022/12/22 08:05:25;;;;;;;44.07;30.47;;;3.80;99.90;;;;;;6274854;28;20470;-64
2022/12/22 08:08:28;;;;;;;46.10;29.67;;;3.80;99.90;;;;;;6274531;28;20822;-65
2022/12/22 08:11:33;;;;;;;43.93;29.73;;;4.00;99.90;;;;;;6274861;28;20471;-65
2022/12/22 08:14:36;;;;;;;47.20;29.50;;;4.10;99.90;;;;;;6274517;28;20466;-65
2022/12/22 08:17:39;;;;;;;41.57;31.93;;;4.30;99.90;;;;;;6274618;28;20476;-66
2022/12/22 08:20:49;;;;;;;53.70;33.27;;;4.40;99.90;;;;;;6274374;28;20486;-65
2022/12/22 08:23:52;;;;;;;40.77;28.80;;;4.60;99.90;;;;;;6298846;28;20496;-65
2022/12/22 08:27:00;;;;;;;46.47;30.20;;;4.70;99.90;;;;;;6299240;28;20465;-65
2022/12/22 08:30:03;;;;;;;36.37;26.33;;;4.70;99.90;;;;;;6299435;28;20484;-65
2022/12/22 08:33:07;;;;;;;37.00;24.87;;;4.80;99.90;;;;;;6298927;28;20464;-65
2022/12/22 08:36:11;;;;;;;35.40;22.93;;;5.00;99.90;;;;;;6298459;28;20445;-64
2022/12/22 08:39:16;;;;;;;36.80;25.10;;;5.10;99.90;;;;;;6299395;28;20477;-65
2022/12/22 08:42:23;;;;;;;33.03;23.10;;;5.20;99.90;;;;;;6271839;28;20462;-65
2022/12/22 08:45:27;;;;;;;30.03;21.87;;;5.20;99.90;;;;;;6273556;28;20454;-65
2022/12/22 08:48:30;;;;;;;40.80;27.73;;;5.20;99.90;;;;;;6276052;28;20477;-64
2022/12/22 08:51:33;;;;;;;38.47;27.20;;;5.10;99.90;;;;;;6250493;28;20973;-65
2022/12/22 08:54:36;;;;;;;47.17;28.10;;;5.00;99.90;;;;;;6249673;28;20474;-65
2022/12/22 08:57:41;;;;;;;43.53;29.93;;;5.00;99.90;;;;;;6253400;28;20509;-64
2022/12/22 09:00:44;;;;;;;58.90;35.00;;;4.90;99.90;;;;;;6274654;28;20470;-64
2022/12/22 09:03:51;;;;;;;59.50;36.10;;;4.80;99.90;;;;;;6279974;28;20466;-63
2022/12/22 09:06:54;;;;;;;55.20;33.73;;;4.70;99.90;;;;;;6278905;28;20524;-63
2022/12/22 09:09:57;;;;;;;49.33;31.30;;;4.60;99.90;;;;;;6278720;28;20488;-63
2022/12/22 09:13:02;;;;;;;50.33;33.70;;;4.50;99.90;;;;;;6277794;28;20477;-64
2022/12/22 09:16:06;;;;;;;54.53;34.67;;;4.60;99.90;;;;;;6266362;28;20938;-64
2022/12/22 09:19:09;;;;;;;52.40;33.00;;;4.50;99.90;;;;;;6261978;28;20482;-64
2022/12/22 09:22:13;;;;;;;46.63;32.83;;;4.60;99.90;;;;;;6267967;28;20946;-65
2022/12/22 09:25:17;;;;;;;51.97;32.30;;;4.70;99.90;;;;;;6277868;28;21014;-64
2022/12/22 09:28:22;;;;;;;57.90;34.60;;;4.80;99.90;;;;;;6277478;28;20471;-63
2022/12/22 09:31:26;;;;;;;51.80;33.10;;;4.90;99.90;;;;;;6283468;28;20465;-65
2022/12/22 09:34:29;;;;;;;47.13;30.57;;;5.10;99.90;;;;;;6304740;28;20507;-65
2022/12/22 09:37:33;;;;;;;49.43;29.80;;;5.40;99.90;;;;;;6293623;28;20465;-65
2022/12/22 09:40:36;;;;;;;55.30;32.00;;;5.80;99.90;;;;;;6276533;28;20852;-65
2022/12/22 09:43:41;;;;;;;43.33;30.63;;;6.10;99.90;;;;;;6277341;28;20477;-65
2022/12/22 09:46:44;;;;;;;50.23;31.13;;;6.40;99.90;;;;;;6277435;28;20465;-65
2022/12/22 09:49:48;;;;;;;39.97;26.87;;;6.60;99.90;;;;;;6254324;28;20966;-65
2022/12/22 09:52:55;;;;;;;43.33;28.13;;;6.60;99.90;;;;;;6252386;28;20489;-65
2022/12/22 09:55:58;;;;;;;51.07;30.87;;;6.60;99.90;;;;;;6265560;28;20979;-65
2022/12/22 09:59:08;;;;;;;52.80;29.27;;;6.60;99.90;;;;;;6265391;28;20475;-66
2022/12/22 10:02:23;;;;;;;47.60;30.13;;;6.50;99.90;;;;;;6252985;28;20471;-65
2022/12/22 10:05:37;;;;;;;47.60;30.23;;;6.50;99.90;;;;;;6252485;28;20483;-66
2022/12/22 10:08:40;;;;;;;48.03;30.63;;;6.70;99.90;;;;;;6251978;28;20556;-65
2022/12/22 10:11:50;;;;;;;45.33;30.93;;;7.00;99.90;;;;;;6265864;28;20888;-65
2022/12/22 10:14:55;;;;;;;50.23;29.90;;;7.50;99.90;;;;;;6262106;28;20993;-65
2022/12/22 10:18:12;;;;;;;43.50;32.10;;;7.90;99.90;;;;;;6261858;28;20476;-64
2022/12/22 10:21:15;;;;;;;45.47;30.57;;;8.20;99.90;;;;;;6257136;28;20475;-65
2022/12/22 10:24:30;;;;;;;44.23;30.00;;;8.50;99.90;;;;;;6301947;28;20437;-64
2022/12/22 10:27:37;;;;;;;48.40;30.47;;;8.70;99.90;;;;;;6277797;28;20477;-65
2022/12/22 10:30:49;;;;;;;44.00;30.17;;;9.00;99.90;;;;;;6276713;28;20484;-65
2022/12/22 10:33:53;;;;;;;41.07;27.80;;;9.10;99.90;;;;;;6278034;28;20466;-65
2022/12/22 10:37:00;;;;;;;41.40;27.80;;;9.30;99.90;;;;;;6276371;28;20471;-66
2022/12/22 10:40:17;;;;;;;45.80;30.40;;;9.50;99.90;;;;;;6276072;28;20501;-65
2022/12/22 10:43:23;;;;;;;42.67;28.67;;;9.70;99.40;;;;;;6277200;28;20501;-65
2022/12/22 10:46:35;;;;;;;41.03;27.73;;;9.90;99.00;;;;;;6276742;28;20806;-64
2022/12/22 10:49:43;;;;;;;46.97;29.07;;;10.10;98.30;;;;;;6266293;28;20475;-65
2022/12/22 10:52:52;;;;;;;42.50;28.83;;;10.40;98.10;;;;;;6250912;28;20602;-64
2022/12/22 10:56:05;;;;;;;38.63;28.37;;;10.50;97.80;;;;;;6250494;28;20471;-65
2022/12/22 10:59:19;;;;;;;45.33;28.70;;;10.50;97.20;;;;;;6252214;28;20486;-65
2022/12/22 11:02:31;;;;;;;42.10;30.10;;;10.40;97.20;;;;;;6251765;28;21014;-62
2022/12/22 11:05:35;;;;;;;41.90;30.97;;;10.10;96.90;;;;;;6250474;28;20506;-61
2022/12/22 11:08:38;;;;;;;44.33;30.87;;;9.80;97.70;;;;;;6249895;28;20900;-62
2022/12/22 11:11:48;;;;;;;42.20;30.67;;;9.50;98.50;;;;;;6250091;28;20475;-61
2022/12/22 11:14:58;;;;;;;40.87;27.27;;;9.30;99.20;;;;;;6250151;28;20493;-62
2022/12/22 11:18:13;;;;;;;47.57;28.50;;;9.60;99.20;;;;;;6250334;28;20478;-62
2022/12/22 11:21:22;;;;;;;45.57;28.03;;;10.10;98.40;;;;;;6274252;28;20478;-62
2022/12/22 11:24:38;;;;;;;44.03;28.77;;;10.40;97.20;;;;;;6273123;28;20890;-63
2022/12/22 11:27:49;;;;;;;38.47;28.00;;;10.00;97.50;;;;;;6277065;28;20471;-62
2022/12/22 11:31:05;;;;;;;39.47;27.90;;;9.80;98.40;;;;;;6277281;28;20474;-63
2022/12/22 11:34:25;;;;;;;40.17;27.20;;;10.00;97.80;;;;;;6275417;28;20474;-63
2022/12/22 11:37:37;;;;;;;43.33;29.13;;;10.20;98.00;;;;;;6275642;28;20470;-63
2022/12/22 11:40:44;;;;;;;35.83;24.57;;;11.60;97.40;;;;;;6275103;28;20485;-63
2022/12/22 11:44:01;;;;;;;32.63;25.80;;;15.20;92.60;;;;;;6275427;28;20474;-63
2022/12/22 11:47:15;;;;;;;32.83;24.50;;;18.60;82.40;;;;;;6274837;28;20982;-63
2022/12/22 11:50:36;;;;;;;32.67;25.70;;;22.30;61.80;;;;;;6258994;28;20467;-63
2022/12/22 11:54:24;;;;;;;31.23;27.33;;;21.80;51.00;;;;;;6268904;28;20310;-63
2022/12/22 11:57:34;;;;;;;30.30;26.07;;;19.60;52.40;;;;;;6272190;28;20224;-63
2022/12/22 12:00:45;;;;;;;29.00;23.70;;;17.60;56.30;;;;;;6273022;28;20489;-63
2022/12/22 12:14:05;;;;;;;32.63;24.47;;;12.70;74.40;;;;;;6304251;27;20567;-61
2022/12/22 12:17:19;;;;;;;34.70;25.20;;;13.80;78.20;;;;;;6296678;28;20476;-60
2022/12/22 12:20:38;;;;;;;30.00;24.20;;;16.50;68.50;;;;;;6296649;28;20481;-60
2022/12/22 12:24:06;;;;;;;29.30;21.77;;;16.60;64.50;;;;;;6295914;28;21083;-59
2022/12/22 12:27:22;;;;;;;28.70;22.33;;;15.90;65.80;;;;;;6317833;28;20448;-60
2022/12/22 12:30:33;;;;;;;24.10;21.60;;;15.90;65.60;;;;;;6294539;28;20972;-60
2022/12/22 12:33:46;;;;;;;30.93;22.40;;;15.20;66.10;;;;;;6294230;28;20470;-60
2022/12/22 12:36:58;;;;;;;31.30;22.10;;;15.10;69.90;;;;;;6293947;28;20469;-60
2022/12/22 12:40:21;;;;;;;33.40;24.00;;;15.60;66.90;;;;;;6294440;28;20469;-60
2022/12/22 12:43:25;;;;;;;27.37;20.40;;;15.00;66.50;;;;;;6295734;28;20473;-59
2022/12/22 12:47:04;;;;;;;24.87;20.43;;;14.00;70.20;;;;;;6295660;28;20484;-59
2022/12/22 12:50:41;;;;;;;34.07;24.97;;;13.40;72.00;;;;;;6295393;28;20469;-60
2022/12/22 12:54:22;;;;;;;27.83;20.43;;;12.50;75.10;;;;;;6295490;28;20478;-60
2022/12/22 12:57:30;;;;;;;26.30;19.97;;;11.60;78.80;;;;;;6295160;28;20933;-60
2022/12/22 13:00:48;;;;;;;29.90;21.10;;;11.00;82.00;;;;;;6295792;28;20461;-59
2022/12/22 13:04:00;;;;;;;27.70;21.00;;;10.50;84.60;;;;;;6295214;28;20957;-61
2022/12/22 13:07:07;;;;;;;30.60;21.97;;;10.10;88.30;;;;;;6296206;28;20479;-60
2022/12/22 13:10:19;;;;;;;27.50;21.90;;;9.70;90.80;;;;;;6296407;28;20466;-59
2022/12/22 13:13:45;;;;;;;27.23;21.03;;;9.40;92.20;;;;;;6294933;28;20461;-59
2022/12/22 13:16:49;;;;;;;28.40;20.27;;;9.20;93.80;;;;;;6306604;28;20475;-60
2022/12/22 13:19:54;;;;;;;27.37;20.10;;;9.00;94.90;;;;;;6296006;28;20479;-60
2022/12/22 13:23:00;;;;;;;28.83;20.97;;;8.70;96.30;;;;;;6291255;28;20955;-60
2022/12/22 13:26:08;;;;;;;26.73;19.60;;;8.50;97.50;;;;;;6278361;28;20956;-60
2022/12/22 13:29:22;;;;;;;28.33;19.20;;;8.20;99.00;;;;;;6278213;28;20485;-60
2022/12/22 13:32:29;;;;;;;29.60;21.37;;;8.00;99.90;;;;;;6278033;28;20470;-60
2022/12/22 13:35:38;;;;;;;27.07;19.70;;;8.00;99.90;;;;;;6277966;28;20581;-60
2022/12/22 13:39:00;;;;;;;23.60;19.23;;;7.90;99.90;;;;;;6277839;28;20961;-60
2022/12/22 13:42:06;;;;;;;28.50;20.70;;;7.90;99.90;;;;;;6277811;28;20443;-60
2022/12/22 13:45:31;;;;;;;30.17;21.37;;;7.90;99.90;;;;;;6277664;28;20418;-60
2022/12/22 13:48:39;;;;;;;25.23;19.83;;;8.00;99.90;;;;;;6276049;28;20470;-60
2022/12/22 13:51:48;;;;;;;28.50;20.47;;;8.00;99.90;;;;;;6277744;28;20975;-60
2022/12/22 13:54:51;;;;;;;28.37;18.70;;;8.10;99.90;;;;;;6277194;28;20848;-60
2022/12/22 13:58:05;;;;;;;32.37;22.53;;;8.20;99.90;;;;;;6277295;28;20481;-60
2022/12/22 14:01:17;;;;;;;29.23;21.33;;;8.20;99.90;;;;;;6277832;28;20470;-60
2022/12/22 14:04:20;;;;;;;29.93;21.43;;;8.20;99.90;;;;;;6277441;28;20466;-60
2022/12/22 14:07:25;;;;;;;28.47;22.33;;;8.10;99.90;;;;;;6277015;28;20504;-60
2022/12/22 14:10:32;;;;;;;33.50;21.57;;;8.10;99.90;;;;;;6277066;28;20803;-61
2022/12/22 14:13:38;;;;;;;26.23;20.50;;;8.10;99.90;;;;;;6276983;28;20917;-60
2022/12/22 14:16:44;;;;;;;27.13;22.50;;;8.10;99.90;;;;;;6277592;28;20477;-60
2022/12/22 14:19:49;;;;;;;26.80;22.73;;;8.00;99.90;;;;;;6299628;28;20469;-60
2022/12/22 14:22:57;;;;;;;28.10;22.83;;;8.00;99.90;;;;;;6301754;28;20476;-60
2022/12/22 14:26:01;;;;;;;31.73;24.30;;;7.90;99.90;;;;;;6302072;28;20777;-60
2022/12/22 14:29:12;;;;;;;33.07;22.53;;;7.90;99.90;;;;;;6301695;28;20472;-60
2022/12/22 14:32:38;;;;;;;34.10;24.63;;;7.80;99.90;;;;;;6301909;28;20481;-60
2022/12/22 14:35:41;;;;;;;38.60;24.17;;;7.80;99.90;;;;;;6300634;28;20469;-60
2022/12/22 14:38:47;;;;;;;33.60;24.07;;;7.80;99.90;;;;;;6301083;28;20515;-60
2022/12/22 14:41:53;;;;;;;34.37;25.03;;;7.80;99.90;;;;;;6301539;28;20936;-60
2022/12/22 14:44:57;;;;;;;33.53;24.50;;;7.70;99.90;;;;;;6301328;28;20469;-60
2022/12/22 14:48:00;;;;;;;36.40;26.07;;;7.60;99.90;;;;;;6301793;28;20480;-60
2022/12/22 14:51:04;;;;;;;37.43;25.13;;;7.70;99.90;;;;;;6301014;28;20456;-60
2022/12/22 14:54:21;;;;;;;40.83;26.70;;;7.70;99.90;;;;;;6301406;28;20473;-60
2022/12/22 14:57:32;;;;;;;34.77;25.87;;;7.70;99.90;;;;;;6300967;28;20461;-60
2022/12/22 15:00:38;;;;;;;43.00;30.53;;;7.60;99.90;;;;;;6300785;28;20484;-60
2022/12/22 15:03:42;;;;;;;36.87;27.60;;;7.60;99.90;;;;;;6300445;28;20491;-60
2022/12/22 15:06:46;;;;;;;41.23;29.50;;;7.60;99.90;;;;;;6301191;28;20556;-60
2022/12/22 15:09:51;;;;;;;30.40;23.27;;;7.60;99.90;;;;;;6300334;28;20457;-60
2022/12/22 15:13:19;;;;;;;31.37;23.40;;;7.70;99.90;;;;;;6299842;28;20865;-60
2022/12/22 15:16:23;;;;;;;31.30;23.37;;;7.70;99.90;;;;;;6300624;28;20469;-60
2022/12/22 15:19:30;;;;;;;29.43;18.33;;;7.60;99.90;;;;;;6280527;28;20475;-60
2022/12/22 15:22:33;;;;;;;23.60;17.17;;;7.60;99.90;;;;;;6275784;28;20474;-60
2022/12/22 15:25:37;;;;;;;22.77;18.37;;;7.50;99.90;;;;;;6275668;28;20480;-60
2022/12/22 15:28:41;;;;;;;37.93;25.43;;;7.40;99.90;;;;;;6275508;28;20519;-60
2022/12/22 15:31:44;;;;;;;41.27;32.47;;;7.40;99.90;;;;;;6277496;28;20475;-60
2022/12/22 15:34:47;;;;;;;30.60;24.53;;;7.30;99.90;;;;;;6285264;28;20481;-60
2022/12/22 15:37:50;;;;;;;29.13;20.73;;;7.40;99.90;;;;;;6284184;28;20485;-60
2022/12/22 15:40:55;;;;;;;21.67;18.10;;;7.30;99.90;;;;;;6275509;28;20476;-60
2022/12/22 15:43:58;;;;;;;23.90;18.23;;;7.30;99.90;;;;;;6275049;28;20799;-60
2022/12/22 15:47:02;;;;;;;29.73;22.83;;;7.20;99.90;;;;;;6275327;28;20519;-63
2022/12/22 15:50:07;;;;;;;35.27;23.80;;;7.00;99.90;;;;;;6274853;28;20481;-62
2022/12/22 15:53:16;;;;;;;25.07;21.27;;;7.00;99.90;;;;;;6275071;28;20482;-64
2022/12/22 15:56:24;;;;;;;27.87;19.47;;;6.90;99.90;;;;;;6275225;28;20485;-62
2022/12/22 15:59:29;;;;;;;25.37;18.03;;;6.90;99.90;;;;;;6275223;28;20953;-62
2022/12/22 16:02:32;;;;;;;27.60;19.70;;;6.90;99.90;;;;;;6274851;28;20591;-63
2022/12/22 16:05:36;;;;;;;24.70;17.87;;;6.80;99.90;;;;;;6274842;28;20529;-63
2022/12/22 16:08:40;;;;;;;27.30;23.20;;;6.80;99.90;;;;;;6275050;28;20485;-61
2022/12/22 16:11:45;;;;;;;29.70;22.70;;;6.70;99.90;;;;;;6274853;28;20488;-61
2022/12/22 16:14:52;;;;;;;27.10;21.17;;;6.70;99.90;;;;;;6274828;28;20485;-61
2022/12/22 16:17:55;;;;;;;27.23;22.53;;;6.50;99.90;;;;;;6282200;28;20469;-61
2022/12/22 16:21:06;;;;;;;35.23;24.33;;;6.50;99.90;;;;;;6299499;28;20461;-61
2022/12/22 16:24:20;;;;;;;30.03;23.73;;;6.50;99.90;;;;;;6299325;28;20890;-61
2022/12/22 16:27:25;;;;;;;30.23;23.67;;;6.40;99.90;;;;;;6299586;28;20480;-61
2022/12/22 16:30:31;;;;;;;35.37;23.83;;;6.40;99.90;;;;;;6299620;28;20465;-61
2022/12/22 16:33:36;;;;;;;28.97;23.03;;;6.40;99.90;;;;;;6299868;28;20544;-61
2022/12/22 16:36:39;;;;;;;33.07;24.33;;;6.40;99.90;;;;;;6299619;28;20465;-61
2022/12/22 16:39:42;;;;;;;35.80;25.80;;;6.40;99.90;;;;;;6299552;28;20834;-61
2022/12/22 16:42:52;;;;;;;39.87;25.67;;;6.40;99.90;;;;;;6299927;28;20471;-61
2022/12/22 16:46:16;;;;;;;32.40;23.83;;;6.40;99.90;;;;;;6299137;28;20796;-62
2022/12/22 16:49:21;;;;;;;32.37;25.07;;;6.40;99.90;;;;;;6299321;28;20492;-62
2022/12/22 16:52:40;;;;;;;32.53;26.17;;;6.30;99.90;;;;;;6299333;28;20473;-61
2022/12/22 16:55:44;;;;;;;34.03;23.40;;;6.30;99.90;;;;;;6299362;28;20481;-62
2022/12/22 16:58:49;;;;;;;37.37;27.13;;;6.30;99.90;;;;;;6301163;28;20548;-62
2022/12/22 17:01:55;;;;;;;31.70;24.67;;;6.10;99.90;;;;;;6303859;28;20469;-61
2022/12/22 17:05:00;;;;;;;34.17;25.50;;;6.00;99.90;;;;;;6303855;28;20768;-62
2022/12/22 17:08:05;;;;;;;33.30;27.13;;;6.00;99.90;;;;;;6303491;28;20469;-61
2022/12/22 17:11:10;;;;;;;34.70;24.80;;;6.00;99.90;;;;;;6304453;28;20481;-62
2022/12/22 17:14:23;;;;;;;37.90;23.87;;;6.00;99.90;;;;;;6303375;28;20500;-62
2022/12/22 17:17:26;;;;;;;46.70;36.70;;;5.90;99.90;;;;;;6303047;28;20488;-62
2022/12/22 17:20:39;;;;;;;43.13;27.87;;;5.90;99.90;;;;;;6303544;28;20480;-62
2022/12/22 17:23:46;;;;;;;38.10;26.73;;;5.80;99.90;;;;;;6303472;28;20783;-61
2022/12/22 17:26:49;;;;;;;34.60;27.50;;;5.70;99.90;;;;;;6303548;28;20476;-62
2022/12/22 17:29:54;;;;;;;36.33;25.67;;;5.70;99.90;;;;;;6303697;28;20803;-61
2022/12/22 17:32:58;;;;;;;34.67;27.77;;;5.70;99.90;;;;;;6303897;28;20448;-61
2022/12/22 17:36:01;;;;;;;54.47;35.60;;;5.70;99.90;;;;;;6298875;28;20484;-61
2022/12/22 17:39:05;;;;;;;50.50;36.23;;;5.70;99.90;;;;;;6303311;28;20805;-61
2022/12/22 17:42:18;;;;;;;44.93;29.47;;;5.70;99.90;;;;;;6305137;28;20446;-61
2022/12/22 17:45:23;;;;;;;41.00;32.30;;;5.70;99.90;;;;;;6304676;28;20458;-61
2022/12/22 17:48:27;;;;;;;37.83;29.10;;;5.60;99.90;;;;;;6303335;28;20473;-62
2022/12/22 17:51:30;;;;;;;47.87;34.03;;;5.70;99.90;;;;;;6302771;28;20484;-62
2022/12/22 17:54:33;;;;;;;61.97;42.03;;;5.60;99.90;;;;;;6302355;28;20469;-61
2022/12/22 17:57:36;;;;;;;47.40;32.53;;;5.60;99.90;;;;;;6302692;28;20469;-61
2022/12/22 18:00:41;;;;;;;52.93;34.80;;;5.60;99.90;;;;;;6302234;28;20476;-62
2022/12/22 18:03:45;;;;;;;35.50;27.10;;;5.60;99.90;;;;;;6302934;28;20503;-61
2022/12/22 18:06:49;;;;;;;98.30;53.50;;;5.60;99.90;;;;;;6302290;28;20476;-62
2022/12/22 18:09:58;;;;;;;87.03;47.60;;;5.50;99.90;;;;;;6302460;28;20469;-61
2022/12/22 18:13:02;;;;;;;56.07;36.77;;;5.60;99.90;;;;;;6302003;28;20474;-61
2022/12/22 18:16:08;;;;;;;55.77;37.27;;;5.50;99.90;;;;;;6301860;28;20469;-61
2022/12/22 18:19:12;;;;;;;38.57;28.47;;;5.50;99.90;;;;;;6284192;28;20620;-61
2022/12/22 18:22:18;;;;;;;39.07;30.10;;;5.60;99.90;;;;;;6276737;28;20984;-61
2022/12/22 18:25:23;;;;;;;32.07;25.30;;;5.60;99.90;;;;;;6277305;28;20481;-61
2022/12/22 18:28:26;;;;;;;33.47;26.10;;;5.60;99.90;;;;;;6277273;28;20474;-61
2022/12/22 18:31:31;;;;;;;38.53;28.60;;;5.70;99.90;;;;;;6276560;28;20469;-61
2022/12/22 18:34:34;;;;;;;41.73;30.13;;;5.70;99.90;;;;;;6276575;28;20565;-61
2022/12/22 18:37:38;;;;;;;30.87;26.53;;;5.60;99.90;;;;;;6276601;28;20553;-62
2022/12/22 18:40:42;;;;;;;38.33;27.27;;;5.60;99.90;;;;;;6276988;28;20481;-61
2022/12/22 18:43:45;;;;;;;36.57;27.07;;;5.50;99.90;;;;;;6278276;28;20474;-61
2022/12/22 18:46:50;;;;;;;37.20;27.73;;;5.50;99.90;;;;;;6281671;28;20790;-61
2022/12/22 18:49:53;;;;;;;34.67;26.93;;;5.50;99.90;;;;;;6286158;28;20494;-61
2022/12/22 18:53:00;;;;;;;33.80;26.67;;;5.50;99.90;;;;;;6283788;28;20476;-61
2022/12/22 18:56:03;;;;;;;34.23;28.10;;;5.50;99.90;;;;;;6276237;28;20481;-61
2022/12/22 18:59:21;;;;;;;38.80;29.97;;;5.50;99.90;;;;;;6276137;28;20484;-61
2022/12/22 19:02:28;;;;;;;33.80;27.87;;;5.50;99.90;;;;;;6275970;28;20483;-61
2022/12/22 19:05:33;;;;;;;33.00;26.77;;;5.50;99.90;;;;;;6275768;28;20906;-61
2022/12/22 19:08:37;;;;;;;38.10;30.13;;;5.50;99.90;;;;;;6275489;28;20492;-61
2022/12/22 19:11:47;;;;;;;35.17;30.80;;;5.50;99.90;;;;;;6275575;28;20489;-61
2022/12/22 19:14:58;;;;;;;39.27;30.37;;;5.40;99.90;;;;;;6275882;28;20800;-61
2022/12/22 19:18:04;;;;;;;38.17;30.23;;;5.30;99.90;;;;;;6275929;28;20454;-62
2022/12/22 19:21:12;;;;;;;32.37;27.07;;;5.30;99.90;;;;;;6275637;28;20927;-61
2022/12/22 19:24:16;;;;;;;28.97;24.80;;;5.20;99.90;;;;;;6275991;28;20438;-61
2022/12/22 19:27:22;;;;;;;32.97;24.40;;;5.20;99.90;;;;;;6276102;28;20469;-61
2022/12/22 19:30:29;;;;;;;31.67;26.37;;;5.20;99.90;;;;;;6275663;28;20473;-61
2022/12/22 19:33:37;;;;;;;29.00;25.27;;;5.10;99.90;;;;;;6275204;28;20901;-62
2022/12/22 19:36:40;;;;;;;35.17;24.87;;;5.00;99.90;;;;;;6275421;28;20953;-61
2022/12/22 19:39:44;;;;;;;35.30;26.70;;;5.00;99.90;;;;;;6275224;28;20481;-61
2022/12/22 19:42:50;;;;;;;35.03;23.90;;;5.00;99.90;;;;;;6275307;28;20945;-61
2022/12/22 19:45:55;;;;;;;35.07;25.30;;;4.90;99.90;;;;;;6274616;28;20545;-61
2022/12/22 19:49:00;;;;;;;28.63;23.30;;;4.80;99.90;;;;;;6274859;28;20478;-61